Time;durP1;ratioP1;P1;durP2;ratioP2;P2;SDS_P1;SDS_P2;PMS_P1;PMS_P2;Temp;Humidity;BMP_temperature;BMP_pressure;BME280_temperature;BME280_humidity;BME280_pressure;Samples;Min_cycle;Max_cycle;Signal;HPM_P1;HPM_P2
2022/12/15 00:44:38;;;;;;;2.03;1.95;;;;;;;3.30;58.80;99545.25;18433718;32;20085;-60
2022/12/15 01:25:45;;;;;;;1.58;1.48;;;;;;;3.53;59.24;99547.25;18433843;32;20096;-60
2022/12/15 01:35:58;;;;;;;0.80;0.80;;;;;;;3.53;59.40;99548.97;18431465;32;20097;-60
2022/12/15 01:46:05;;;;;;;0.80;0.80;;;;;;;3.45;60.10;99565.22;18432226;32;20168;-60
2022/12/15 01:56:08;;;;;;;0.80;0.80;;;;;;;3.49;60.35;99548.06;18431853;32;20100;-60
2022/12/15 02:06:13;;;;;;;3.40;2.62;;;;;;;3.41;60.74;99563.44;18431294;32;20144;-60
2022/12/15 02:16:24;;;;;;;0.70;0.70;;;;;;;3.40;60.83;99543.63;18430754;32;20145;-60
2022/12/15 02:27:13;;;;;;;2.15;2.03;;;;;;;3.43;60.87;99546.28;18431167;32;20489;-60
2022/12/15 02:37:21;;;;;;;0.70;0.70;;;;;;;3.49;60.83;99542.91;18431090;32;20136;-60
2022/12/15 02:47:31;;;;;;;0.60;0.60;;;;;;;3.38;61.22;99554.81;18430506;32;20092;-60
2022/12/15 02:57:39;;;;;;;5.43;1.83;;;;;;;3.40;61.30;99558.28;18437214;32;20490;-60
2022/12/15 03:07:43;;;;;;;0.88;0.88;;;;;;;3.41;61.26;99555.69;18437658;32;20107;-60
2022/12/15 03:17:53;;;;;;;1.55;1.50;;;;;;;3.49;60.93;99567.84;18436365;32;20093;-60
2022/12/15 03:27:56;;;;;;;2.12;2.03;;;;;;;3.43;61.21;99577.25;18436980;32;20102;-60
2022/12/15 03:38:00;;;;;;;3.25;2.95;;;;;;;3.51;61.37;99594.53;18435756;32;20369;-60
2022/12/15 03:48:04;;;;;;;0.65;0.65;;;;;;;3.57;61.24;99586.88;18435298;32;20155;-60
2022/12/15 03:58:08;;;;;;;0.55;0.55;;;;;;;3.50;61.47;99597.94;18454449;32;20101;-60
2022/12/15 04:08:11;;;;;;;0.55;0.55;;;;;;;3.39;61.81;99613.31;18498786;32;20209;-60
2022/12/15 04:18:16;;;;;;;0.68;0.68;;;;;;;3.36;62.21;99620.97;18448935;32;20392;-60
2022/12/15 05:40:52;;;;;;;0.80;0.80;;;;;;;3.08;65.02;99701.38;18433416;32;20422;-60
2022/12/15 05:50:55;;;;;;;3.12;2.95;;;;;;;3.36;63.79;99735.38;18431512;32;20096;-60
2022/12/15 06:01:04;;;;;;;1.45;1.40;;;;;;;3.11;64.51;99744.41;18431587;32;20089;-60
2022/12/15 06:11:09;;;;;;;0.68;0.68;;;;;;;3.11;64.49;99755.59;18430997;32;20146;-60
2022/12/15 06:21:16;;;;;;;2.65;2.45;;;;;;;3.15;64.57;99787.47;18430158;32;20147;-60
2022/12/15 06:31:21;;;;;;;0.62;0.62;;;;;;;3.26;64.10;99821.22;18429643;32;20097;-60
2022/12/15 06:41:26;;;;;;;3.60;3.20;;;;;;;3.35;63.99;99835.97;18429181;32;20111;-60
2022/12/15 06:51:29;;;;;;;19.58;9.43;;;;;;;3.54;63.23;99843.19;18429168;32;20146;-61
2022/12/15 07:01:34;;;;;;;0.73;0.73;;;;;;;3.66;63.04;99827.06;18427150;32;20191;-60
2022/12/15 07:11:39;;;;;;;0.80;0.80;;;;;;;3.64;62.77;99844.25;18426798;32;20174;-60
2022/12/15 07:21:44;;;;;;;0.50;0.50;;;;;;;3.67;62.74;99864.94;18427035;32;20553;-60
2022/12/15 07:31:47;;;;;;;2.67;2.45;;;;;;;3.71;63.04;99869.31;18425620;32;20102;-60
2022/12/15 07:41:51;;;;;;;3.70;3.45;;;;;;;4.06;62.23;99898.28;18434979;32;20097;-60
2022/12/15 07:51:57;;;;;;;1.95;1.85;;;;;;;3.83;62.40;99875.53;18434674;32;20366;-60
2022/12/15 08:02:03;;;;;;;0.80;0.80;;;;;;;3.98;62.08;99926.56;18433741;32;20101;-61
2022/12/15 08:12:07;;;;;;;1.75;1.67;;;;;;;3.90;62.26;99905.78;18433603;32;20111;-60
2022/12/15 08:22:11;;;;;;;2.45;2.28;;;;;;;4.18;61.96;99938.94;18433029;32;20108;-61
2022/12/15 08:32:14;;;;;;;1.50;1.50;;;;;;;4.30;61.73;99958.09;18429082;32;161216;-61
2022/12/15 08:42:19;;;;;;;1.00;1.00;;;;;;;4.38;61.49;99963.37;18434394;32;20109;-61
2022/12/15 08:52:23;;;;;;;1.10;1.10;;;;;;;4.36;61.93;99964.19;18432955;32;20449;-61
2022/12/15 09:02:27;;;;;;;12.52;2.25;;;;;;;4.43;61.76;99978.97;18433318;32;20144;-60
2022/12/15 09:12:30;;;;;;;0.80;0.80;;;;;;;4.63;61.29;99991.34;18431350;32;20109;-61
2022/12/15 09:22:36;;;;;;;0.88;0.88;;;;;;;4.60;62.03;100011.97;18427758;32;20131;-61
2022/12/15 09:32:39;;;;;;;2.30;1.77;;;;;;;4.51;62.41;100012.72;18458216;32;20100;-61
2022/12/15 09:42:45;;;;;;;4.65;4.15;;;;;;;4.62;61.85;99998.25;18460715;32;20410;-61
2022/12/15 09:52:50;;;;;;;1.58;1.48;;;;;;;5.20;60.87;99988.69;18467172;32;20154;-61
2022/12/15 10:03:23;;;;;;;1.62;1.58;;;;;;;5.58;59.69;99990.03;18364620;32;20116;-61
2022/12/15 10:13:33;;;;;;;1.10;1.10;;;;;;;5.67;59.64;99977.19;18407399;32;20179;-61
2022/12/15 10:23:38;;;;;;;3.10;2.42;;;;;;;5.77;59.33;99979.03;18465729;32;20097;-61
2022/12/15 10:33:44;;;;;;;2.00;1.90;;;;;;;5.66;59.48;99959.91;18452049;32;20467;-61
2022/12/15 10:44:23;;;;;;;0.70;0.70;;;;;;;5.72;59.55;99953.94;18444232;32;20175;-61
2022/12/15 10:54:36;;;;;;;4.50;2.67;;;;;;;5.90;59.60;99961.91;18462565;32;20163;-61
2022/12/15 11:04:40;;;;;;;2.15;2.05;;;;;;;5.80;59.18;99962.66;18423849;32;20097;-61
2022/12/15 11:14:45;;;;;;;0.70;0.70;;;;;;;5.97;58.61;99963.69;18461269;32;20147;-61
2022/12/15 11:24:54;;;;;;;0.90;0.90;;;;;;;5.86;59.47;99965.28;18432175;32;20092;-61
2022/12/15 11:34:57;;;;;;;1.17;1.12;;;;;;;6.08;59.00;99955.19;18430822;32;20088;-61
2022/12/15 11:45:03;;;;;;;1.35;1.35;;;;;;;5.97;59.33;99968.88;18485771;32;20124;-61
2022/12/15 11:55:16;;;;;;;2.67;2.47;;;;;;;6.04;59.27;99981.91;18462983;32;20092;-60
2022/12/15 12:05:38;;;;;;;0.65;0.65;;;;;;;6.05;59.31;99984.53;18443421;32;20158;-60
2022/12/15 12:15:49;;;;;;;1.02;1.02;;;;;;;6.15;59.18;99994.97;18449220;32;20700;-61
2022/12/15 12:25:56;;;;;;;;;;;;;;;6.08;59.36;99983.69;18460018;32;20103;-61
2022/12/15 12:36:08;;;;;;;0.60;0.60;;;;;;;6.10;59.26;99981.97;18487154;32;19979;-60
2022/12/15 12:46:16;;;;;;;1.25;1.15;;;;;;;6.08;59.53;99984.53;18496584;32;20102;-61
2022/12/15 12:56:38;;;;;;;2.58;1.87;;;;;;;6.18;59.34;99969.97;18457380;32;20113;-60
2022/12/15 13:07:03;;;;;;;4.35;2.17;;;;;;;6.80;58.75;99973.00;18448896;32;20115;-59
2022/12/15 13:17:18;;;;;;;1.00;1.00;;;;;;;6.55;58.54;99986.69;18468532;32;20175;-60
2022/12/15 13:27:37;;;;;;;3.05;2.80;;;;;;;6.47;58.55;100000.44;18425917;32;20166;-59
2022/12/15 13:37:45;;;;;;;0.70;0.70;;;;;;;6.16;59.78;99992.38;18431197;32;20102;-59
2022/12/15 13:47:54;;;;;;;0.50;0.50;;;;;;;6.36;59.78;100007.28;18428755;32;20418;-59
2022/12/15 13:58:00;;;;;;;0.70;0.70;;;;;;;6.43;59.48;100009.03;18435234;32;20160;-59
2022/12/15 14:08:10;;;;;;;3.47;3.15;;;;;;;6.39;59.73;100010.72;18493334;32;20084;-59
2022/12/15 14:18:24;;;;;;;0.93;0.90;;;;;;;6.22;60.32;100017.53;18446005;32;20150;-60
2022/12/15 14:28:31;;;;;;;0.60;0.60;;;;;;;6.04;61.33;100024.25;18452278;32;20172;-59
2022/12/15 14:38:46;;;;;;;0.82;0.82;;;;;;;5.99;62.29;100027.63;18481896;32;20123;-60
2022/12/15 14:48:54;;;;;;;2.95;2.35;;;;;;;5.83;62.90;100024.84;18436102;32;20168;-60
2022/12/15 14:59:02;;;;;;;2.10;1.95;;;;;;;5.66;64.21;100017.75;18431739;32;20111;-59
2022/12/15 15:09:19;;;;;;;0.73;0.73;;;;;;;5.75;64.01;100029.06;18432497;32;20391;-61
2022/12/15 15:19:22;;;;;;;5.07;4.78;;;;;;;5.76;63.96;100033.41;18437898;32;20774;-59
2022/12/15 15:29:38;;;;;;;0.60;0.60;;;;;;;5.52;64.87;100029.69;18449416;32;20092;-59
2022/12/15 15:39:41;;;;;;;1.10;1.10;;;;;;;5.51;65.29;100046.06;18451818;32;20114;-60
2022/12/15 15:49:46;;;;;;;0.80;0.80;;;;;;;5.48;65.38;100039.12;18471094;32;20455;-59
2022/12/15 15:59:50;;;;;;;9.73;9.05;;;;;;;5.46;65.85;100016.66;18487612;32;20088;-59
2022/12/15 16:09:54;;;;;;;10.57;2.33;;;;;;;5.31;66.44;100009.56;18446357;32;20096;-59
2022/12/15 16:19:58;;;;;;;1.08;1.08;;;;;;;5.23;66.77;100012.06;18430199;32;20088;-59
2022/12/15 16:30:09;;;;;;;1.65;1.55;;;;;;;5.27;66.90;100019.87;18427430;32;20166;-59
2022/12/15 16:40:17;;;;;;;1.20;1.17;;;;;;;5.26;67.20;100025.91;18429577;32;20371;-60
2022/12/15 16:50:25;;;;;;;2.17;1.98;;;;;;;5.25;67.54;100028.47;18429528;32;20452;-59
2022/12/15 17:00:30;;;;;;;0.93;0.93;;;;;;;5.28;67.62;100034.56;18430545;32;20366;-59
2022/12/15 17:10:35;;;;;;;1.15;0.98;;;;;;;5.28;67.61;100031.09;18429672;32;20171;-59
2022/12/15 17:20:38;;;;;;;3.05;2.67;;;;;;;5.28;67.38;100052.66;18427904;32;20137;-60
2022/12/15 17:30:42;;;;;;;1.70;1.60;;;;;;;5.14;68.02;100068.00;18490712;32;20441;-59
2022/12/15 17:40:46;;;;;;;1.33;1.33;;;;;;;5.21;67.98;100055.13;18389168;32;20125;-59
2022/12/15 17:50:53;;;;;;;4.57;4.28;;;;;;;5.28;67.79;100065.62;18447233;32;20140;-59
2022/12/15 18:00:56;;;;;;;1.67;1.58;;;;;;;5.34;67.71;100069.12;18458067;32;20133;-59
2022/12/15 18:11:01;;;;;;;3.33;3.03;;;;;;;5.25;67.90;100056.94;18418579;32;20111;-59
2022/12/15 18:21:12;;;;;;;1.67;1.58;;;;;;;5.14;68.29;100049.88;18404306;32;20112;-60
2022/12/15 18:31:20;;;;;;;1.10;1.10;;;;;;;5.13;68.44;100037.81;18363764;32;20176;-60
2022/12/15 18:41:23;;;;;;;0.50;0.50;;;;;;;5.28;67.92;100034.56;18429756;32;20115;-59
2022/12/15 18:51:29;;;;;;;3.30;2.70;;;;;;;5.20;68.06;100043.03;18424827;32;20758;-59
2022/12/15 19:01:33;;;;;;;1.50;1.40;;;;;;;5.20;67.98;100049.09;18423728;32;20179;-59
2022/12/15 19:11:38;;;;;;;5.32;2.00;;;;;;;5.30;67.73;100052.66;18424265;32;20150;-59
2022/12/15 19:32:00;;;;;;;2.08;0.73;;;;;;;5.13;68.48;100037.81;18417073;32;20092;-59
2022/12/15 19:42:04;;;;;;;1.48;1.48;;;;;;;5.38;67.79;100042.44;18435820;32;20089;-59
2022/12/15 19:52:16;;;;;;;0.50;0.50;;;;;;;5.07;68.76;100035.12;18435742;32;20119;-59
2022/12/15 20:02:20;;;;;;;2.80;1.77;;;;;;;5.11;68.56;100036.03;18435554;32;20096;-59
2022/12/15 20:12:26;;;;;;;1.20;1.20;;;;;;;5.02;68.93;100026.41;18434893;32;20476;-59
2022/12/15 20:22:29;;;;;;;2.17;2.03;;;;;;;5.14;68.31;99998.12;18424854;32;20089;-59
2022/12/15 20:32:34;;;;;;;0.70;0.70;;;;;;;5.19;68.54;99985.25;18370189;32;20390;-59
2022/12/15 20:42:40;;;;;;;0.70;0.70;;;;;;;4.95;69.20;99949.59;18369933;32;20163;-59
2022/12/15 20:52:45;;;;;;;0.70;0.70;;;;;;;4.84;69.94;99928.72;18418050;32;20091;-59
2022/12/15 21:02:48;;;;;;;0.50;0.50;;;;;;;4.98;69.32;99955.66;18434065;32;20092;-59
2022/12/15 21:12:55;;;;;;;0.75;0.75;;;;;;;5.06;68.96;99939.34;18445879;32;20104;-59
2022/12/15 21:22:58;;;;;;;1.17;1.15;;;;;;;5.11;68.76;99945.47;18434766;32;20084;-59
2022/12/15 21:33:03;;;;;;;0.60;0.60;;;;;;;5.08;68.84;99924.75;18457217;32;20372;-59
2022/12/15 21:43:06;;;;;;;0.70;0.70;;;;;;;5.19;68.43;99914.50;18426160;32;20105;-60
2022/12/15 21:53:15;;;;;;;0.60;0.60;;;;;;;5.17;68.52;99903.28;18426331;32;20096;-60
2022/12/15 22:03:18;;;;;;;0.50;0.50;;;;;;;5.19;68.68;99893.81;18426739;32;20093;-59
2022/12/15 22:13:23;;;;;;;0.60;0.60;;;;;;;5.36;68.12;99894.87;18437144;32;20096;-59
2022/12/15 22:23:26;;;;;;;0.57;0.57;;;;;;;5.30;68.25;99884.44;18429949;32;20104;-59
2022/12/15 22:33:31;;;;;;;0.85;0.85;;;;;;;5.32;68.65;99875.00;18415700;32;20120;-59
2022/12/15 22:43:37;;;;;;;0.80;0.80;;;;;;;5.33;68.43;99852.56;18429247;32;20088;-59
2022/12/15 22:53:42;;;;;;;0.60;0.60;;;;;;;5.36;68.98;99847.41;18428873;32;20101;-59
2022/12/15 23:03:45;;;;;;;0.70;0.70;;;;;;;5.13;70.02;99825.63;18429252;32;20111;-59
2022/12/15 23:13:49;;;;;;;0.70;0.70;;;;;;;5.27;69.50;99819.72;18438270;32;20133;-59
2022/12/15 23:23:53;;;;;;;0.50;0.50;;;;;;;5.41;69.52;99819.84;18436593;32;20085;-59
2022/12/15 23:33:58;;;;;;;0.40;0.40;;;;;;;5.55;68.82;99807.91;18435526;32;20101;-59
2022/12/15 23:44:01;;;;;;;0.65;0.65;;;;;;;5.23;70.36;99802.44;18435506;32;20089;-59
2022/12/15 23:54:06;;;;;;;1.02;1.00;;;;;;;5.08;71.41;99777.28;18435339;32;20143;-59
